sensor_id;sensor_type;location;lat;lon;timestamp;P1;P2;P0
70436;PMS5003;57877;39.750;-104.894;2023-07-13T00:01:24;2;2;
70436;PMS5003;57877;39.750;-104.894;2023-07-13T00:03:49;3;2;
70436;PMS5003;57877;39.750;-104.894;2023-07-13T00:06:14;0;0;
70436;PMS5003;57877;39.750;-104.894;2023-07-13T00:08:39;1;1;
70436;PMS5003;57877;39.750;-104.894;2023-07-13T00:11:04;1;0;
70436;PMS5003;57877;39.750;-104.894;2023-07-13T00:13:30;0;0;
70436;PMS5003;57877;39.750;-104.894;2023-07-13T00:15:56;1;1;
70436;PMS5003;57877;39.750;-104.894;2023-07-13T00:18:20;0;0;
70436;PMS5003;57877;39.750;-104.894;2023-07-13T00:20:45;0;0;
70436;PMS5003;57877;39.750;-104.894;2023-07-13T00:23:10;2;2;
70436;PMS5003;57877;39.750;-104.894;2023-07-13T00:25:35;4;4;
70436;PMS5003;57877;39.750;-104.894;2023-07-13T00:28:00;1;1;
70436;PMS5003;57877;39.750;-104.894;2023-07-13T00:30:25;0;0;
70436;PMS5003;57877;39.750;-104.894;2023-07-13T00:32:50;1;1;
70436;PMS5003;57877;39.750;-104.894;2023-07-13T00:35:16;1;1;
70436;PMS5003;57877;39.750;-104.894;2023-07-13T00:37:41;1;1;
70436;PMS5003;57877;39.750;-104.894;2023-07-13T00:40:07;0;0;
70436;PMS5003;57877;39.750;-104.894;2023-07-13T00:42:31;0;0;
70436;PMS5003;57877;39.750;-104.894;2023-07-13T00:47:21;1;1;
70436;PMS5003;57877;39.750;-104.894;2023-07-13T00:49:46;2;1;
70436;PMS5003;57877;39.750;-104.894;2023-07-13T00:52:11;1;1;
70436;PMS5003;57877;39.750;-104.894;2023-07-13T00:54:38;1;1;
70436;PMS5003;57877;39.750;-104.894;2023-07-13T00:57:03;1;1;
70436;PMS5003;57877;39.750;-104.894;2023-07-13T00:59:27;1;1;
70436;PMS5003;57877;39.750;-104.894;2023-07-13T01:01:52;1;1;
70436;PMS5003;57877;39.750;-104.894;2023-07-13T01:04:17;0;0;
70436;PMS5003;57877;39.750;-104.894;2023-07-13T01:06:42;0;0;
70436;PMS5003;57877;39.750;-104.894;2023-07-13T01:09:07;0;0;
70436;PMS5003;57877;39.750;-104.894;2023-07-13T01:11:32;0;0;
70436;PMS5003;57877;39.750;-104.894;2023-07-13T01:13:57;1;1;
70436;PMS5003;57877;39.750;-104.894;2023-07-13T01:16:24;1;1;
70436;PMS5003;57877;39.750;-104.894;2023-07-13T01:18:48;0;0;
70436;PMS5003;57877;39.750;-104.894;2023-07-13T01:21:13;0;0;
70436;PMS5003;57877;39.750;-104.894;2023-07-13T01:23:38;0;0;
70436;PMS5003;57877;39.750;-104.894;2023-07-13T01:26:03;0;0;
70436;PMS5003;57877;39.750;-104.894;2023-07-13T01:28:28;0;0;
70436;PMS5003;57877;39.750;-104.894;2023-07-13T01:30:53;0;0;
70436;PMS5003;57877;39.750;-104.894;2023-07-13T01:33:18;0;0;
70436;PMS5003;57877;39.750;-104.894;2023-07-13T01:35:43;0;0;
70436;PMS5003;57877;39.750;-104.894;2023-07-13T01:38:08;0;0;
70436;PMS5003;57877;39.750;-104.894;2023-07-13T01:40:33;0;0;
70436;PMS5003;57877;39.750;-104.894;2023-07-13T01:42:58;1;1;
70436;PMS5003;57877;39.750;-104.894;2023-07-13T01:45:23;0;0;
70436;PMS5003;57877;39.750;-104.894;2023-07-13T01:47:48;1;1;
70436;PMS5003;57877;39.750;-104.894;2023-07-13T01:50:14;0;0;
70436;PMS5003;57877;39.750;-104.894;2023-07-13T01:52:39;1;0;
70436;PMS5003;57877;39.750;-104.894;2023-07-13T01:55:04;0;0;
70436;PMS5003;57877;39.750;-104.894;2023-07-13T01:57:29;0;0;
70436;PMS5003;57877;39.750;-104.894;2023-07-13T01:59:54;0;0;
70436;PMS5003;57877;39.750;-104.894;2023-07-13T02:02:19;1;1;
70436;PMS5003;57877;39.750;-104.894;2023-07-13T02:04:44;0;0;
70436;PMS5003;57877;39.750;-104.894;2023-07-13T02:07:11;0;0;
70436;PMS5003;57877;39.750;-104.894;2023-07-13T02:09:36;1;1;
70436;PMS5003;57877;39.750;-104.894;2023-07-13T02:12:01;1;1;
70436;PMS5003;57877;39.750;-104.894;2023-07-13T02:14:27;0;0;
70436;PMS5003;57877;39.750;-104.894;2023-07-13T02:16:53;0;0;
70436;PMS5003;57877;39.750;-104.894;2023-07-13T02:19:18;1;1;
70436;PMS5003;57877;39.750;-104.894;2023-07-13T02:21:44;2;2;
70436;PMS5003;57877;39.750;-104.894;2023-07-13T02:24:09;2;2;
70436;PMS5003;57877;39.750;-104.894;2023-07-13T02:26:34;1;1;
70436;PMS5003;57877;39.750;-104.894;2023-07-13T02:28:59;1;1;
70436;PMS5003;57877;39.750;-104.894;2023-07-13T02:31:24;2;2;
70436;PMS5003;57877;39.750;-104.894;2023-07-13T02:33:50;1;1;
70436;PMS5003;57877;39.750;-104.894;2023-07-13T02:36:16;1;1;
70436;PMS5003;57877;39.750;-104.894;2023-07-13T02:38:41;1;0;
70436;PMS5003;57877;39.750;-104.894;2023-07-13T02:41:06;1;1;
70436;PMS5003;57877;39.750;-104.894;2023-07-13T02:43:32;1;1;
70436;PMS5003;57877;39.750;-104.894;2023-07-13T02:45:58;0;0;
70436;PMS5003;57877;39.750;-104.894;2023-07-13T02:48:24;1;1;
70436;PMS5003;57877;39.750;-104.894;2023-07-13T02:50:49;1;1;
70436;PMS5003;57877;39.750;-104.894;2023-07-13T02:53:14;2;1;
70436;PMS5003;57877;39.750;-104.894;2023-07-13T02:55:39;2;2;
70436;PMS5003;57877;39.750;-104.894;2023-07-13T02:58:04;1;1;
70436;PMS5003;57877;39.750;-104.894;2023-07-13T03:00:29;1;1;
70436;PMS5003;57877;39.750;-104.894;2023-07-13T03:02:54;0;0;
70436;PMS5003;57877;39.750;-104.894;2023-07-13T03:05:20;0;0;
70436;PMS5003;57877;39.750;-104.894;2023-07-13T03:07:44;0;0;
70436;PMS5003;57877;39.750;-104.894;2023-07-13T03:10:09;0;0;
70436;PMS5003;57877;39.750;-104.894;2023-07-13T03:12:34;2;2;
70436;PMS5003;57877;39.750;-104.894;2023-07-13T03:15:00;1;1;
70436;PMS5003;57877;39.750;-104.894;2023-07-13T03:17:24;3;2;
70436;PMS5003;57877;39.750;-104.894;2023-07-13T03:19:50;1;0;
70436;PMS5003;57877;39.750;-104.894;2023-07-13T03:22:15;1;1;
70436;PMS5003;57877;39.750;-104.894;2023-07-13T03:24:40;2;2;
70436;PMS5003;57877;39.750;-104.894;2023-07-13T03:27:05;0;0;
70436;PMS5003;57877;39.750;-104.894;2023-07-13T03:29:30;1;1;
70436;PMS5003;57877;39.750;-104.894;2023-07-13T03:31:55;0;0;
70436;PMS5003;57877;39.750;-104.894;2023-07-13T03:34:20;1;1;
70436;PMS5003;57877;39.750;-104.894;2023-07-13T03:36:45;2;2;
70436;PMS5003;57877;39.750;-104.894;2023-07-13T03:39:10;0;0;
70436;PMS5003;57877;39.750;-104.894;2023-07-13T03:41:35;0;0;
70436;PMS5003;57877;39.750;-104.894;2023-07-13T03:44:00;0;0;
70436;PMS5003;57877;39.750;-104.894;2023-07-13T03:46:25;2;0;
70436;PMS5003;57877;39.750;-104.894;2023-07-13T03:48:50;0;0;
70436;PMS5003;57877;39.750;-104.894;2023-07-13T03:51:15;0;0;
70436;PMS5003;57877;39.750;-104.894;2023-07-13T03:53:40;1;1;
70436;PMS5003;57877;39.750;-104.894;2023-07-13T03:56:05;1;1;
70436;PMS5003;57877;39.750;-104.894;2023-07-13T03:58:30;1;1;
70436;PMS5003;57877;39.750;-104.894;2023-07-13T04:00:55;2;0;
70436;PMS5003;57877;39.750;-104.894;2023-07-13T04:03:20;1;1;
70436;PMS5003;57877;39.750;-104.894;2023-07-13T04:05:45;1;1;
70436;PMS5003;57877;39.750;-104.894;2023-07-13T04:08:11;3;3;
70436;PMS5003;57877;39.750;-104.894;2023-07-13T04:10:36;0;0;
70436;PMS5003;57877;39.750;-104.894;2023-07-13T04:13:01;1;1;
70436;PMS5003;57877;39.750;-104.894;2023-07-13T04:15:28;2;2;
70436;PMS5003;57877;39.750;-104.894;2023-07-13T04:17:51;2;2;
70436;PMS5003;57877;39.750;-104.894;2023-07-13T04:20:16;1;0;
70436;PMS5003;57877;39.750;-104.894;2023-07-13T04:22:41;2;2;
70436;PMS5003;57877;39.750;-104.894;2023-07-13T04:25:06;2;2;
70436;PMS5003;57877;39.750;-104.894;2023-07-13T04:27:32;0;0;
70436;PMS5003;57877;39.750;-104.894;2023-07-13T04:29:58;0;0;
70436;PMS5003;57877;39.750;-104.894;2023-07-13T04:32:24;2;2;
70436;PMS5003;57877;39.750;-104.894;2023-07-13T04:34:49;1;1;
70436;PMS5003;57877;39.750;-104.894;2023-07-13T04:37:14;1;1;
70436;PMS5003;57877;39.750;-104.894;2023-07-13T04:39:39;2;2;
70436;PMS5003;57877;39.750;-104.894;2023-07-13T04:42:05;3;3;
70436;PMS5003;57877;39.750;-104.894;2023-07-13T04:44:29;2;2;
70436;PMS5003;57877;39.750;-104.894;2023-07-13T04:46:55;3;2;
70436;PMS5003;57877;39.750;-104.894;2023-07-13T04:49:20;2;2;
70436;PMS5003;57877;39.750;-104.894;2023-07-13T04:51:45;3;2;
70436;PMS5003;57877;39.750;-104.894;2023-07-13T04:54:10;4;4;
70436;PMS5003;57877;39.750;-104.894;2023-07-13T04:56:35;2;2;
70436;PMS5003;57877;39.750;-104.894;2023-07-13T04:59:00;1;1;
70436;PMS5003;57877;39.750;-104.894;2023-07-13T05:01:25;3;3;
70436;PMS5003;57877;39.750;-104.894;2023-07-13T05:03:50;3;2;
70436;PMS5003;57877;39.750;-104.894;2023-07-13T05:06:16;4;4;
70436;PMS5003;57877;39.750;-104.894;2023-07-13T05:08:41;1;1;
70436;PMS5003;57877;39.750;-104.894;2023-07-13T05:11:07;2;2;
70436;PMS5003;57877;39.750;-104.894;2023-07-13T05:13:33;2;2;
70436;PMS5003;57877;39.750;-104.894;2023-07-13T05:16:00;2;2;
70436;PMS5003;57877;39.750;-104.894;2023-07-13T05:18:25;3;3;
70436;PMS5003;57877;39.750;-104.894;2023-07-13T05:20:57;2;2;
70436;PMS5003;57877;39.750;-104.894;2023-07-13T05:23:16;2;1;
70436;PMS5003;57877;39.750;-104.894;2023-07-13T05:25:41;0;0;
70436;PMS5003;57877;39.750;-104.894;2023-07-13T05:28:07;1;1;
70436;PMS5003;57877;39.750;-104.894;2023-07-13T05:30:33;2;2;
70436;PMS5003;57877;39.750;-104.894;2023-07-13T05:32:58;4;3;
70436;PMS5003;57877;39.750;-104.894;2023-07-13T05:35:24;2;2;
70436;PMS5003;57877;39.750;-104.894;2023-07-13T05:37:50;2;2;
70436;PMS5003;57877;39.750;-104.894;2023-07-13T05:40:15;1;1;
70436;PMS5003;57877;39.750;-104.894;2023-07-13T05:42:41;0;0;
70436;PMS5003;57877;39.750;-104.894;2023-07-13T05:45:08;1;0;
70436;PMS5003;57877;39.750;-104.894;2023-07-13T05:47:33;1;1;
70436;PMS5003;57877;39.750;-104.894;2023-07-13T05:49:59;1;1;
70436;PMS5003;57877;39.750;-104.894;2023-07-13T05:52:25;2;2;
70436;PMS5003;57877;39.750;-104.894;2023-07-13T05:54:51;2;2;
70436;PMS5003;57877;39.750;-104.894;2023-07-13T05:57:22;3;2;
70436;PMS5003;57877;39.750;-104.894;2023-07-13T05:59:43;2;2;
70436;PMS5003;57877;39.750;-104.894;2023-07-13T06:02:10;2;2;
70436;PMS5003;57877;39.750;-104.894;2023-07-13T06:04:35;2;2;
70436;PMS5003;57877;39.750;-104.894;2023-07-13T06:07:01;0;0;
70436;PMS5003;57877;39.750;-104.894;2023-07-13T06:09:27;2;2;
70436;PMS5003;57877;39.750;-104.894;2023-07-13T06:11:53;1;1;
70436;PMS5003;57877;39.750;-104.894;2023-07-13T06:14:20;1;1;
70436;PMS5003;57877;39.750;-104.894;2023-07-13T06:16:46;3;2;
70436;PMS5003;57877;39.750;-104.894;2023-07-13T06:19:12;0;0;
70436;PMS5003;57877;39.750;-104.894;2023-07-13T06:21:38;1;1;
70436;PMS5003;57877;39.750;-104.894;2023-07-13T06:24:04;2;2;
70436;PMS5003;57877;39.750;-104.894;2023-07-13T06:26:30;1;1;
70436;PMS5003;57877;39.750;-104.894;2023-07-13T06:28:56;2;2;
70436;PMS5003;57877;39.750;-104.894;2023-07-13T06:31:22;2;2;
70436;PMS5003;57877;39.750;-104.894;2023-07-13T06:33:48;2;2;
70436;PMS5003;57877;39.750;-104.894;2023-07-13T06:36:14;1;1;
70436;PMS5003;57877;39.750;-104.894;2023-07-13T06:38:40;2;2;
70436;PMS5003;57877;39.750;-104.894;2023-07-13T06:41:06;2;1;
70436;PMS5003;57877;39.750;-104.894;2023-07-13T06:43:32;3;3;
70436;PMS5003;57877;39.750;-104.894;2023-07-13T06:45:58;1;1;
70436;PMS5003;57877;39.750;-104.894;2023-07-13T06:48:24;2;2;
70436;PMS5003;57877;39.750;-104.894;2023-07-13T06:50:50;2;1;
70436;PMS5003;57877;39.750;-104.894;2023-07-13T06:53:16;1;1;
70436;PMS5003;57877;39.750;-104.894;2023-07-13T06:55:43;2;2;
70436;PMS5003;57877;39.750;-104.894;2023-07-13T06:58:08;1;1;
70436;PMS5003;57877;39.750;-104.894;2023-07-13T07:00:34;2;2;
70436;PMS5003;57877;39.750;-104.894;2023-07-13T07:03:00;2;2;
70436;PMS5003;57877;39.750;-104.894;2023-07-13T07:05:26;0;0;
70436;PMS5003;57877;39.750;-104.894;2023-07-13T07:07:53;3;3;
70436;PMS5003;57877;39.750;-104.894;2023-07-13T07:10:18;3;1;
70436;PMS5003;57877;39.750;-104.894;2023-07-13T07:12:44;2;2;
70436;PMS5003;57877;39.750;-104.894;2023-07-13T07:15:10;3;3;
70436;PMS5003;57877;39.750;-104.894;2023-07-13T07:17:35;3;3;
70436;PMS5003;57877;39.750;-104.894;2023-07-13T07:20:02;2;2;
70436;PMS5003;57877;39.750;-104.894;2023-07-13T07:22:28;2;2;
70436;PMS5003;57877;39.750;-104.894;2023-07-13T07:24:53;3;3;
70436;PMS5003;57877;39.750;-104.894;2023-07-13T07:27:20;2;2;
70436;PMS5003;57877;39.750;-104.894;2023-07-13T07:29:45;2;2;
70436;PMS5003;57877;39.750;-104.894;2023-07-13T07:32:11;5;5;
70436;PMS5003;57877;39.750;-104.894;2023-07-13T07:34:36;4;4;
70436;PMS5003;57877;39.750;-104.894;2023-07-13T07:37:03;2;2;
70436;PMS5003;57877;39.750;-104.894;2023-07-13T07:39:29;5;5;
70436;PMS5003;57877;39.750;-104.894;2023-07-13T07:41:55;3;3;
70436;PMS5003;57877;39.750;-104.894;2023-07-13T07:44:21;2;2;
70436;PMS5003;57877;39.750;-104.894;2023-07-13T07:46:46;5;4;
70436;PMS5003;57877;39.750;-104.894;2023-07-13T07:49:11;1;1;
70436;PMS5003;57877;39.750;-104.894;2023-07-13T07:51:36;2;1;
70436;PMS5003;57877;39.750;-104.894;2023-07-13T07:54:02;3;3;
70436;PMS5003;57877;39.750;-104.894;2023-07-13T07:56:28;3;3;
70436;PMS5003;57877;39.750;-104.894;2023-07-13T07:58:53;3;3;
70436;PMS5003;57877;39.750;-104.894;2023-07-13T08:01:19;6;6;
70436;PMS5003;57877;39.750;-104.894;2023-07-13T08:03:44;4;4;
70436;PMS5003;57877;39.750;-104.894;2023-07-13T08:06:09;4;4;
70436;PMS5003;57877;39.750;-104.894;2023-07-13T08:08:34;4;4;
70436;PMS5003;57877;39.750;-104.894;2023-07-13T08:11:02;3;3;
70436;PMS5003;57877;39.750;-104.894;2023-07-13T08:13:25;4;4;
70436;PMS5003;57877;39.750;-104.894;2023-07-13T08:15:50;4;4;
70436;PMS5003;57877;39.750;-104.894;2023-07-13T08:18:15;3;3;
70436;PMS5003;57877;39.750;-104.894;2023-07-13T08:20:40;5;5;
70436;PMS5003;57877;39.750;-104.894;2023-07-13T08:23:05;4;4;
70436;PMS5003;57877;39.750;-104.894;2023-07-13T08:25:30;4;4;
70436;PMS5003;57877;39.750;-104.894;2023-07-13T08:27:55;3;3;
70436;PMS5003;57877;39.750;-104.894;2023-07-13T08:30:20;3;3;
70436;PMS5003;57877;39.750;-104.894;2023-07-13T08:32:46;4;4;
70436;PMS5003;57877;39.750;-104.894;2023-07-13T08:35:11;5;5;
70436;PMS5003;57877;39.750;-104.894;2023-07-13T08:37:36;4;4;
70436;PMS5003;57877;39.750;-104.894;2023-07-13T08:40:01;8;6;
70436;PMS5003;57877;39.750;-104.894;2023-07-13T08:42:31;5;5;
70436;PMS5003;57877;39.750;-104.894;2023-07-13T08:44:53;5;5;
70436;PMS5003;57877;39.750;-104.894;2023-07-13T08:47:16;4;4;
70436;PMS5003;57877;39.750;-104.894;2023-07-13T08:49:41;4;4;
70436;PMS5003;57877;39.750;-104.894;2023-07-13T08:52:08;6;6;
70436;PMS5003;57877;39.750;-104.894;2023-07-13T08:54:31;5;5;
70436;PMS5003;57877;39.750;-104.894;2023-07-13T08:56:56;5;5;
70436;PMS5003;57877;39.750;-104.894;2023-07-13T08:59:22;8;6;
70436;PMS5003;57877;39.750;-104.894;2023-07-13T09:01:50;5;5;
70436;PMS5003;57877;39.750;-104.894;2023-07-13T09:04:13;4;4;
70436;PMS5003;57877;39.750;-104.894;2023-07-13T09:06:42;4;4;
70436;PMS5003;57877;39.750;-104.894;2023-07-13T09:09:05;5;5;
70436;PMS5003;57877;39.750;-104.894;2023-07-13T09:11:34;5;4;
70436;PMS5003;57877;39.750;-104.894;2023-07-13T09:13:55;6;5;
70436;PMS5003;57877;39.750;-104.894;2023-07-13T09:16:19;4;4;
70436;PMS5003;57877;39.750;-104.894;2023-07-13T09:18:45;6;5;
70436;PMS5003;57877;39.750;-104.894;2023-07-13T09:21:11;6;6;
70436;PMS5003;57877;39.750;-104.894;2023-07-13T09:23:36;4;4;
70436;PMS5003;57877;39.750;-104.894;2023-07-13T09:26:03;6;6;
70436;PMS5003;57877;39.750;-104.894;2023-07-13T09:28:29;5;5;
70436;PMS5003;57877;39.750;-104.894;2023-07-13T09:30:56;7;6;
70436;PMS5003;57877;39.750;-104.894;2023-07-13T09:33:20;4;4;
70436;PMS5003;57877;39.750;-104.894;2023-07-13T09:35:46;6;6;
70436;PMS5003;57877;39.750;-104.894;2023-07-13T09:38:13;5;5;
70436;PMS5003;57877;39.750;-104.894;2023-07-13T09:40:40;5;5;
70436;PMS5003;57877;39.750;-104.894;2023-07-13T09:43:04;5;5;
70436;PMS5003;57877;39.750;-104.894;2023-07-13T09:45:29;6;5;
70436;PMS5003;57877;39.750;-104.894;2023-07-13T09:47:59;5;5;
70436;PMS5003;57877;39.750;-104.894;2023-07-13T09:50:19;4;4;
70436;PMS5003;57877;39.750;-104.894;2023-07-13T09:52:44;5;4;
70436;PMS5003;57877;39.750;-104.894;2023-07-13T09:57:34;5;5;
70436;PMS5003;57877;39.750;-104.894;2023-07-13T09:59:59;7;6;
70436;PMS5003;57877;39.750;-104.894;2023-07-13T10:02:25;7;7;
70436;PMS5003;57877;39.750;-104.894;2023-07-13T10:04:51;4;4;
70436;PMS5003;57877;39.750;-104.894;2023-07-13T10:07:14;5;5;
70436;PMS5003;57877;39.750;-104.894;2023-07-13T10:09:39;7;6;
70436;PMS5003;57877;39.750;-104.894;2023-07-13T10:12:04;6;4;
70436;PMS5003;57877;39.750;-104.894;2023-07-13T10:14:29;5;4;
70436;PMS5003;57877;39.750;-104.894;2023-07-13T10:16:56;6;6;
70436;PMS5003;57877;39.750;-104.894;2023-07-13T10:19:21;5;5;
70436;PMS5003;57877;39.750;-104.894;2023-07-13T10:21:46;6;6;
70436;PMS5003;57877;39.750;-104.894;2023-07-13T10:24:12;7;6;
70436;PMS5003;57877;39.750;-104.894;2023-07-13T10:26:34;5;5;
70436;PMS5003;57877;39.750;-104.894;2023-07-13T10:29:01;4;4;
70436;PMS5003;57877;39.750;-104.894;2023-07-13T10:31:24;7;7;
70436;PMS5003;57877;39.750;-104.894;2023-07-13T10:33:49;5;5;
70436;PMS5003;57877;39.750;-104.894;2023-07-13T10:36:17;5;5;
70436;PMS5003;57877;39.750;-104.894;2023-07-13T10:38:39;6;6;
70436;PMS5003;57877;39.750;-104.894;2023-07-13T10:41:06;6;6;
70436;PMS5003;57877;39.750;-104.894;2023-07-13T10:43:31;5;5;
70436;PMS5003;57877;39.750;-104.894;2023-07-13T10:45:55;5;5;
70436;PMS5003;57877;39.750;-104.894;2023-07-13T10:48:21;6;5;
70436;PMS5003;57877;39.750;-104.894;2023-07-13T10:50:47;7;7;
70436;PMS5003;57877;39.750;-104.894;2023-07-13T10:55:38;7;7;
70436;PMS5003;57877;39.750;-104.894;2023-07-13T10:58:02;9;9;
70436;PMS5003;57877;39.750;-104.894;2023-07-13T11:00:30;7;6;
70436;PMS5003;57877;39.750;-104.894;2023-07-13T11:02:56;6;6;
70436;PMS5003;57877;39.750;-104.894;2023-07-13T11:05:31;6;5;
70436;PMS5003;57877;39.750;-104.894;2023-07-13T11:10:09;5;5;
70436;PMS5003;57877;39.750;-104.894;2023-07-13T11:15:03;7;7;
70436;PMS5003;57877;39.750;-104.894;2023-07-13T11:17:25;3;3;
70436;PMS5003;57877;39.750;-104.894;2023-07-13T11:19:48;5;5;
70436;PMS5003;57877;39.750;-104.894;2023-07-13T11:22:16;5;5;
70436;PMS5003;57877;39.750;-104.894;2023-07-13T11:29:32;6;6;
70436;PMS5003;57877;39.750;-104.894;2023-07-13T11:31:53;4;4;
70436;PMS5003;57877;39.750;-104.894;2023-07-13T11:34:18;7;4;
70436;PMS5003;57877;39.750;-104.894;2023-07-13T11:36:44;5;5;
70436;PMS5003;57877;39.750;-104.894;2023-07-13T11:39:12;5;5;
70436;PMS5003;57877;39.750;-104.894;2023-07-13T11:41:35;5;5;
70436;PMS5003;57877;39.750;-104.894;2023-07-13T11:44:02;5;5;
70436;PMS5003;57877;39.750;-104.894;2023-07-13T11:46:24;6;5;
70436;PMS5003;57877;39.750;-104.894;2023-07-13T11:48:50;4;4;
70436;PMS5003;57877;39.750;-104.894;2023-07-13T11:51:17;4;3;
70436;PMS5003;57877;39.750;-104.894;2023-07-13T11:53:43;6;6;
70436;PMS5003;57877;39.750;-104.894;2023-07-13T11:56:04;4;4;
70436;PMS5003;57877;39.750;-104.894;2023-07-13T11:58:29;5;5;
70436;PMS5003;57877;39.750;-104.894;2023-07-13T12:00:55;5;5;
70436;PMS5003;57877;39.750;-104.894;2023-07-13T12:03:21;5;5;
70436;PMS5003;57877;39.750;-104.894;2023-07-13T12:08:10;5;5;
70436;PMS5003;57877;39.750;-104.894;2023-07-13T12:10:36;5;5;
70436;PMS5003;57877;39.750;-104.894;2023-07-13T12:13:02;5;5;
70436;PMS5003;57877;39.750;-104.894;2023-07-13T12:15:28;5;5;
70436;PMS5003;57877;39.750;-104.894;2023-07-13T12:17:53;5;5;
70436;PMS5003;57877;39.750;-104.894;2023-07-13T12:20:20;4;4;
70436;PMS5003;57877;39.750;-104.894;2023-07-13T12:22:45;5;5;
70436;PMS5003;57877;39.750;-104.894;2023-07-13T12:25:11;4;4;
70436;PMS5003;57877;39.750;-104.894;2023-07-13T12:27:37;7;7;
70436;PMS5003;57877;39.750;-104.894;2023-07-13T12:30:04;5;5;
70436;PMS5003;57877;39.750;-104.894;2023-07-13T12:32:29;5;5;
70436;PMS5003;57877;39.750;-104.894;2023-07-13T12:34:55;4;4;
70436;PMS5003;57877;39.750;-104.894;2023-07-13T12:37:20;6;6;
70436;PMS5003;57877;39.750;-104.894;2023-07-13T12:39:45;6;6;
70436;PMS5003;57877;39.750;-104.894;2023-07-13T12:42:16;6;5;
70436;PMS5003;57877;39.750;-104.894;2023-07-13T12:44:39;5;4;
70436;PMS5003;57877;39.750;-104.894;2023-07-13T12:47:03;5;5;
70436;PMS5003;57877;39.750;-104.894;2023-07-13T12:49:28;7;6;
70436;PMS5003;57877;39.750;-104.894;2023-07-13T12:51:56;6;6;
70436;PMS5003;57877;39.750;-104.894;2023-07-13T12:54:19;4;3;
70436;PMS5003;57877;39.750;-104.894;2023-07-13T12:56:45;7;7;
70436;PMS5003;57877;39.750;-104.894;2023-07-13T12:59:15;7;6;
70436;PMS5003;57877;39.750;-104.894;2023-07-13T13:01:37;4;4;
70436;PMS5003;57877;39.750;-104.894;2023-07-13T13:04:03;5;5;
70436;PMS5003;57877;39.750;-104.894;2023-07-13T13:06:29;5;5;
70436;PMS5003;57877;39.750;-104.894;2023-07-13T13:08:56;6;6;
70436;PMS5003;57877;39.750;-104.894;2023-07-13T13:11:22;7;6;
70436;PMS5003;57877;39.750;-104.894;2023-07-13T13:13:47;6;6;
70436;PMS5003;57877;39.750;-104.894;2023-07-13T13:16:14;6;6;
70436;PMS5003;57877;39.750;-104.894;2023-07-13T13:18:39;5;4;
70436;PMS5003;57877;39.750;-104.894;2023-07-13T13:21:05;5;5;
70436;PMS5003;57877;39.750;-104.894;2023-07-13T13:23:31;5;5;
70436;PMS5003;57877;39.750;-104.894;2023-07-13T13:25:57;4;4;
70436;PMS5003;57877;39.750;-104.894;2023-07-13T13:28:23;6;5;
70436;PMS5003;57877;39.750;-104.894;2023-07-13T13:30:50;6;5;
70436;PMS5003;57877;39.750;-104.894;2023-07-13T13:33:16;4;4;
70436;PMS5003;57877;39.750;-104.894;2023-07-13T13:35:41;5;5;
70436;PMS5003;57877;39.750;-104.894;2023-07-13T13:38:10;4;4;
70436;PMS5003;57877;39.750;-104.894;2023-07-13T13:40:33;5;5;
70436;PMS5003;57877;39.750;-104.894;2023-07-13T13:42:59;5;5;
70436;PMS5003;57877;39.750;-104.894;2023-07-13T13:45:25;4;4;
70436;PMS5003;57877;39.750;-104.894;2023-07-13T13:47:51;5;5;
70436;PMS5003;57877;39.750;-104.894;2023-07-13T13:50:18;6;6;
70436;PMS5003;57877;39.750;-104.894;2023-07-13T13:52:43;3;3;
70436;PMS5003;57877;39.750;-104.894;2023-07-13T13:55:13;4;4;
70436;PMS5003;57877;39.750;-104.894;2023-07-13T13:57:35;6;6;
70436;PMS5003;57877;39.750;-104.894;2023-07-13T14:00:01;4;4;
70436;PMS5003;57877;39.750;-104.894;2023-07-13T14:02:28;4;3;
70436;PMS5003;57877;39.750;-104.894;2023-07-13T14:04:55;3;2;
70436;PMS5003;57877;39.750;-104.894;2023-07-13T14:07:19;5;4;
70436;PMS5003;57877;39.750;-104.894;2023-07-13T14:09:45;6;6;
70436;PMS5003;57877;39.750;-104.894;2023-07-13T14:12:10;5;5;
70436;PMS5003;57877;39.750;-104.894;2023-07-13T14:14:37;4;4;
70436;PMS5003;57877;39.750;-104.894;2023-07-13T14:17:02;7;7;
70436;PMS5003;57877;39.750;-104.894;2023-07-13T14:19:26;5;5;
70436;PMS5003;57877;39.750;-104.894;2023-07-13T14:21:51;6;6;
70436;PMS5003;57877;39.750;-104.894;2023-07-13T14:24:17;5;5;
70436;PMS5003;57877;39.750;-104.894;2023-07-13T14:26:46;5;5;
70436;PMS5003;57877;39.750;-104.894;2023-07-13T14:29:11;5;5;
70436;PMS5003;57877;39.750;-104.894;2023-07-13T14:31:34;6;5;
70436;PMS5003;57877;39.750;-104.894;2023-07-13T14:33:58;5;5;
70436;PMS5003;57877;39.750;-104.894;2023-07-13T14:36:26;5;5;
70436;PMS5003;57877;39.750;-104.894;2023-07-13T14:38:49;6;5;
70436;PMS5003;57877;39.750;-104.894;2023-07-13T14:41:15;5;5;
70436;PMS5003;57877;39.750;-104.894;2023-07-13T14:43:40;4;4;
70436;PMS5003;57877;39.750;-104.894;2023-07-13T14:46:05;5;4;
70436;PMS5003;57877;39.750;-104.894;2023-07-13T14:48:30;4;4;
70436;PMS5003;57877;39.750;-104.894;2023-07-13T14:50:56;5;5;
70436;PMS5003;57877;39.750;-104.894;2023-07-13T14:53:20;5;5;
70436;PMS5003;57877;39.750;-104.894;2023-07-13T14:55:45;5;5;
70436;PMS5003;57877;39.750;-104.894;2023-07-13T14:58:10;4;3;
70436;PMS5003;57877;39.750;-104.894;2023-07-13T15:00:35;2;2;
70436;PMS5003;57877;39.750;-104.894;2023-07-13T15:03:00;2;2;
70436;PMS5003;57877;39.750;-104.894;2023-07-13T15:05:26;2;2;
70436;PMS5003;57877;39.750;-104.894;2023-07-13T15:07:50;0;0;
70436;PMS5003;57877;39.750;-104.894;2023-07-13T15:10:16;1;0;
70436;PMS5003;57877;39.750;-104.894;2023-07-13T15:12:40;1;0;
70436;PMS5003;57877;39.750;-104.894;2023-07-13T15:15:05;0;0;
70436;PMS5003;57877;39.750;-104.894;2023-07-13T15:17:32;0;0;
70436;PMS5003;57877;39.750;-104.894;2023-07-13T15:19:55;1;1;
70436;PMS5003;57877;39.750;-104.894;2023-07-13T15:22:20;0;0;
70436;PMS5003;57877;39.750;-104.894;2023-07-13T15:24:45;1;0;
70436;PMS5003;57877;39.750;-104.894;2023-07-13T15:27:11;0;0;
70436;PMS5003;57877;39.750;-104.894;2023-07-13T15:29:36;0;0;
70436;PMS5003;57877;39.750;-104.894;2023-07-13T15:32:00;0;0;
70436;PMS5003;57877;39.750;-104.894;2023-07-13T15:34:26;1;1;
70436;PMS5003;57877;39.750;-104.894;2023-07-13T15:36:51;0;0;
70436;PMS5003;57877;39.750;-104.894;2023-07-13T15:39:16;1;1;
70436;PMS5003;57877;39.750;-104.894;2023-07-13T15:41:41;0;0;
70436;PMS5003;57877;39.750;-104.894;2023-07-13T15:44:22;2;2;
70436;PMS5003;57877;39.750;-104.894;2023-07-13T15:46:31;0;0;
70436;PMS5003;57877;39.750;-104.894;2023-07-13T15:48:56;1;0;
70436;PMS5003;57877;39.750;-104.894;2023-07-13T15:51:23;0;0;
70436;PMS5003;57877;39.750;-104.894;2023-07-13T15:53:46;1;1;
70436;PMS5003;57877;39.750;-104.894;2023-07-13T15:56:15;1;1;
70436;PMS5003;57877;39.750;-104.894;2023-07-13T15:58:36;1;0;
70436;PMS5003;57877;39.750;-104.894;2023-07-13T16:01:02;1;0;
70436;PMS5003;57877;39.750;-104.894;2023-07-13T16:03:27;0;0;
70436;PMS5003;57877;39.750;-104.894;2023-07-13T16:05:52;2;2;
70436;PMS5003;57877;39.750;-104.894;2023-07-13T16:08:19;0;0;